Delta Virtual Airport Information Service

Louisville International Airport

ICAO: KSDF Country: United States
Latitude: 38.1741 Longitude: -85.7364
Latest Arrival : UPS2997 (2) (PANC-KSDF) Latest Departure : UPS2844 (KSDF-KSLC)


WX CaptureLIVE
Data provided by noaa.gov | Fetched at 22:06:06

METAR : KSDF 240256Z 32012G19KT 10SM BKN012 OVC016 14/12 A3008 RMK AO2 SLP184 60002 T01390117 53031 $

TAF : KSDF 240137Z 2402/2506 32012G18KT P6SM SCT007 BKN015 TEMPO 2402/2405 BKN007 FM241200 36011KT P6SM SCT011 BKN020 FM241600 02010KT P6SM SCT020 BKN060


Runway Data for KSDF
Data provided by openaviationdata.com

Runway ID Mag Var Hdg Length Elevation Surface ILS Freq ILS Id ILS Slope
11 -2 113° 7241 ft 501 ft Concrete -- -- --
17L -2 167° 8587 ft 501 ft Concrete 111.95 IPKI 3
17R -2 168° 10010 ft 501 ft Concrete 110.3 ISNU 3
29 -2 293° 7241 ft 501 ft Concrete 109.1 ILKS 3
35L -2 348° 10010 ft 501 ft Concrete 109.35 IRLI 3
35R -2 347° 8587 ft 501 ft Concrete 110.55 IJJM 3

Louisville International Airport, United States
Use only for reference purposes



Not for navigational purposes.